...

 METAR AND TAF INFORMATION
METAR FOR USCC
ADDS - METARS form results

(1653 UTC 18 January 2021)
Data provider http://aviationweather.gov/metar/data/
 
METAR text: USCC 181630Z 35002MPS CAVOK M21/M23 Q1017 R27/350045 NOSIG RMK QFE743
Conditions at: USCC (CHELYABINSK-BALA, RU) observed 1630 UTC 18 January 2021
Temperature: -21.0°C (-6°F)
Dewpoint: -23.0°C (-9°F) [RH = 84%]
Pressure (altimeter): 30.03 inches Hg (1017.0 mb)
Winds: from the N (350 degrees) at 5 MPH (4 knots; 2.1 m/s)
Visibility: 6 or more miles (10+ km)
Ceiling: ceiling and visibility are OK
Clouds: unknown
Weather: no significant weather observed at this time

METAR text: USCC 181600Z 36002MPS CAVOK M22/M24 Q1017 R27/350045 NOSIG RMK QFE743
Conditions at: USCC (CHELYABINSK-BALA, RU) observed 1600 UTC 18 January 2021
Temperature: -22.0°C (-8°F)
Dewpoint: -24.0°C (-11°F) [RH = 84%]
Pressure (altimeter): 30.03 inches Hg (1017.0 mb)
Winds: from the N (360 degrees) at 5 MPH (4 knots; 2.1 m/s)
Visibility: 6 or more miles (10+ km)
Ceiling: ceiling and visibility are OK
Clouds: unknown
Weather: no significant weather observed at this time

Forecast for: USCC (CHELYABINSK-BALA, RU)
Text: TAF USCC 181400Z 1815/1915 25003G10MPS 9999 SCT030
Forecast period: 1500 UTC 18 January 2021 to 1500 UTC 19 January 2021
Forecast type: FROM: standard forecast or significant change
Winds: from the WSW (250 degrees) at 7 MPH (6 knots; 3.1 m/s)
gusting to 22 MPH (19 knots; 9.8 m/s)
Visibility: 6 or more miles (10+ km)
Ceiling: at least 12,000 feet AGL
Clouds: scattered clouds at 3000 feet AGL
Weather: no significant weather forecast for this period
Text: TEMPO 1815/1915 23003G12MPS
Forecast period: 1500 UTC 18 January 2021 to 1500 UTC 19 January 2021
Forecast type: TEMPORARY: The following changes expected for less than half the time period
Winds: from the SW (230 degrees) at 7 MPH (6 knots; 3.1 m/s)
gusting to 26 MPH (23 knots; 11.8 m/s)
Visibility: missing
Ceiling: unknown
Clouds: missing
Weather: no significant weather forecast for this period

 AIRPORT MAP

 RUNWAY INFORMATION
Runway 09 Runway length 10499 ft Runway width 197 ft
Runway elevation 759 ft Runway displaced threshold 0 ft Runway heading 104
Runway 27 Runway length 10499 ft Runway width 197 ft
Runway elevation 737 ft Runway displaced threshold 0 ft Runway heading 284

 AIRPORT FREQUENCIES
Type APP Name CHELYABINS Frequency 124.7 MHZ
Type PMSV Name CHELYABINS Frequency 128.3 MHZ
Type TWR Name CHELYABINS Frequency 125.2 MHZ

 AIRPORT NEAR NAVIGATION AIDS
Type NDB Name Gorevoye Frequency 106 KHZ
Type NDB Name Chelyabinsk Frequency 412 KHZ
Type NDB Name Chelyabinsk Frequency 452 KHZ
Type VOR-DME Name Chelyabinsk Frequency 113300 KHZ